Terminal Aerodrome Forecast
Issued by NWS Cleveland, OH

Home | Current Version | Previous Version | Text Only | Print | Product List | Glossary On
Versions: 1 2 3 4 5 6 7 8 9 10 11 12 13 14 15 16 17 18
662
FTUS41 KCLE 191220 AAA
TAFMFD
TAF AMD
KMFD 191220Z 1912/2012 30010G20KT P6SM OVC025
      TEMPO 1912/1914 OVC035
     FM191400 29010G20KT P6SM OVC035
     FM192200 29012KT P6SM BKN035
     FM200800 24009KT P6SM SCT250=

USA.gov is the U.S. government's official web portal to all federal, state and local government web resources and services.